^^
Datos históricos de la estación: Murcia-Puente Tocinos
Diario Informe para Junio 10, 2019 Unidades:  Métrico    Ingés   Ambas
Diario Semanal Mensual Anual
  Máxima: Mínima: Promedio:
Temperatura: 20.3 °C 11 °C 14.9 °C
Punto de rocio: 7.1 °C 0.5 °C 3.1 °C
Humedad: 69% 29.3% 46%
Velocidad viento: 20.1km/h 2.9km/h 9.4km/h
Racha viento: 37.8km/h - -
Viento- - SO
Presión: 1026.2 hPa 1022.0 hPa -
Precipitación: 0.0 mm    
 
 
Tabla de datos para Junio 10, 2019
Hora Temperatura Punto de rocio Presión Viento Velocidad viento Racha viento Humedad Intensidad lluvia(por hora) Nubes
00:04 15.8 °C 4.5 °C 1025.8 hPa OSO 14.7 km/h 24.1 km/h 47% 0.0 mm
00:09 15.8 °C 4.5 °C 1025.9 hPa SO 12.2 km/h 14.5 km/h 47% 0.0 mm
00:14 15.7 °C 4.4 °C 1025.9 hPa SSO 9.2 km/h 14.5 km/h 47% 0.0 mm
00:19 15.7 °C 4.4 °C 1025.9 hPa Sur 6.9 km/h 16.7 km/h 47% 0.0 mm
00:24 15.7 °C 4.6 °C 1026.2 hPa SO 7.3 km/h 16.1 km/h 47.7% 0.0 mm
00:29 15.7 °C 4.7 °C 1026.2 hPa SO 7.6 km/h 18.5 km/h 48% 0.0 mm
00:34 15.7 °C 4.7 °C 1026.2 hPa SO 8.7 km/h 19.3 km/h 48% 0.0 mm
00:39 15.6 °C 4.9 °C 1026.2 hPa OSO 9.5 km/h 27.4 km/h 48.8% 0.0 mm
00:44 15.6 °C 4.9 °C 1026.1 hPa OSO 11.5 km/h 29.6 km/h 49% 0.0 mm
00:49 15.6 °C 4.9 °C 1026.1 hPa OSO 13 km/h 29 km/h 49% 0.0 mm
00:54 15.6 °C 4.9 °C 1026.1 hPa SO 13 km/h 27.4 km/h 49% 0.0 mm
00:59 15.4 °C 4.9 °C 1026.0 hPa SO 13 km/h 20.9 km/h 49.5% 0.0 mm
01:04 15.4 °C 5 °C 1026.0 hPa SSO 10.5 km/h 16.1 km/h 50% 0.0 mm
01:09 15.3 °C 4.9 °C 1026.1 hPa SO 8.7 km/h 14.5 km/h 49.7% 0.0 mm
01:14 15.3 °C 4.7 °C 1026.1 hPa SO 8.1 km/h 22 km/h 49.2% 0.0 mm
01:19 15.3 °C 4.4 °C 1026.1 hPa OSO 7.6 km/h 22.5 km/h 48.5% 0.0 mm
01:24 15.3 °C 4.1 °C 1026.1 hPa OSO 9.6 km/h 25.6 km/h 47.3% 0.0 mm
01:29 15.4 °C 3.9 °C 1026.0 hPa OSO 11.1 km/h 26.2 km/h 46.2% 0.0 mm
01:34 15.4 °C 3.9 °C 1026.0 hPa SO 13.2 km/h 25.7 km/h 46% 0.0 mm
01:39 15.3 °C 3.7 °C 1026.0 hPa SO 14.8 km/h 25.9 km/h 45.8% 0.0 mm
01:44 15.3 °C 3.5 °C 1026.0 hPa SO 12.7 km/h 25.7 km/h 45.1% 0.0 mm
01:49 15.3 °C 3.4 °C 1026.0 hPa SO 11.1 km/h 18.5 km/h 45% 0.0 mm
01:54 15.3 °C 3.4 °C 1026.2 hPa SO 10.7 km/h 19.3 km/h 45% 0.0 mm
01:59 15.3 °C 3.4 °C 1026.2 hPa SO 10.3 km/h 17.7 km/h 45% 0.0 mm
02:04 15.2 °C 3.4 °C 1026.2 hPa OSO 10.8 km/h 24.1 km/h 45% 0.0 mm
02:09 15.2 °C 3.3 °C 1026.2 hPa SO 11.1 km/h 24.1 km/h 45% 0.0 mm
02:14 15.2 °C 3.1 °C 1025.9 hPa OSO 11.7 km/h 25.9 km/h 44.3% 0.0 mm
02:19 15.2 °C 3 °C 1025.9 hPa OSO 12.2 km/h 25.7 km/h 44% 0.0 mm
02:24 15.2 °C 3 °C 1025.9 hPa SO 13.3 km/h 22.5 km/h 44% 0.0 mm
02:29 15.1 °C 2.9 °C 1025.9 hPa OSO 14 km/h 22.2 km/h 44% 0.0 mm
02:34 15.1 °C 2.9 °C 1025.9 hPa Oeste 13 km/h 24.1 km/h 44% 0.0 mm
02:39 15 °C 2.8 °C 1025.9 hPa Oeste 12.2 km/h 24.1 km/h 44% 0.0 mm
02:44 15 °C 2.8 °C 1025.7 hPa OSO 12.2 km/h 22.5 km/h 44% 0.0 mm
02:49 14.9 °C 2.8 °C 1025.7 hPa OSO 12.2 km/h 23.3 km/h 44% 0.0 mm
02:54 14.9 °C 2.8 °C 1025.7 hPa SO 11 km/h 24.1 km/h 44% 0.0 mm
02:59 14.9 °C 2.7 °C 1025.6 hPa SO 10 km/h 24.1 km/h 44% 0.0 mm
03:04 14.8 °C 2.7 °C 1025.6 hPa SSO 8.5 km/h 14.8 km/h 44% 0.0 mm
03:09 14.7 °C 2.8 °C 1025.9 hPa SO 7.6 km/h 15.6 km/h 44.7% 0.0 mm
03:14 14.7 °C 2.8 °C 1025.9 hPa SO 8.9 km/h 18.5 km/h 45% 0.0 mm
03:19 14.6 °C 2.8 °C 1025.9 hPa SSO 10 km/h 19.3 km/h 45% 0.0 mm
03:24 14.6 °C 2.8 °C 1025.9 hPa SSO 9.7 km/h 14.8 km/h 45% 0.0 mm
03:29 14.6 °C 2.8 °C 1025.5 hPa SSO 9.5 km/h 14.8 km/h 45% 0.0 mm
03:34 14.6 °C 2.8 °C 1025.5 hPa SSO 9.5 km/h 14.8 km/h 45% 0.0 mm
03:39 14.5 °C 2.7 °C 1025.6 hPa Sur 9.5 km/h 14.8 km/h 44.8% 0.0 mm
03:44 14.4 °C 2.6 °C 1025.6 hPa Sur 10 km/h 17.2 km/h 45% 0.0 mm
03:49 14.3 °C 2.6 °C 1025.6 hPa Sur 10.3 km/h 17.7 km/h 45% 0.0 mm
03:54 14.3 °C 2.5 °C 1025.6 hPa Sur 9.4 km/h 16.7 km/h 45% 0.0 mm
03:59 14.2 °C 2.3 °C 1025.5 hPa Sur 8.7 km/h 17.2 km/h 44.6% 0.0 mm
04:04 14.3 °C 2.2 °C 1025.5 hPa SSO 9.5 km/h 22.2 km/h 44% 0.0 mm
04:09 14.3 °C 2.1 °C 1025.5 hPa SO 10 km/h 22.5 km/h 43.5% 0.0 mm
04:14 14.4 °C 1.9 °C 1025.1 hPa SO 12.3 km/h 28.2 km/h 43% 0.0 mm
04:19 14.6 °C 1.7 °C 1025.1 hPa OSO 14 km/h 35.2 km/h 41.9% 0.0 mm
04:24 14.8 °C 1.6 °C 1025.1 hPa OSO 16.4 km/h 35.4 km/h 41% 0.0 mm
04:29 14.9 °C 1.4 °C 1025.1 hPa OSO 18.4 km/h 33.8 km/h 40.1% 0.0 mm
04:34 14.9 °C 1.4 °C 1025.1 hPa SO 18.2 km/h 33.8 km/h 40% 0.0 mm
04:39 14.9 °C 1.4 °C 1025.1 hPa SO 18 km/h 26.2 km/h 40% 0.0 mm
04:44 14.8 °C 1.3 °C 1025.0 hPa SO 14.8 km/h 25.7 km/h 40% 0.0 mm
04:49 14.7 °C 1.4 °C 1025.0 hPa SO 12.2 km/h 24.1 km/h 40.7% 0.0 mm
04:54 14.4 °C 1.9 °C 1025.0 hPa SSO 12.7 km/h 22.5 km/h 42.7% 0.0 mm
04:59 14.2 °C 1.8 °C 1025.0 hPa SO 13 km/h 22.2 km/h 43% 0.0 mm
05:04 14.1 °C 1.6 °C 1025.0 hPa SO 12.6 km/h 22.5 km/h 43% 0.0 mm
05:09 14.1 °C 1.6 °C 1025.0 hPa SO 12.2 km/h 30.6 km/h 43% 0.0 mm
05:14 14.1 °C 1.7 °C 1024.8 hPa SO 14.2 km/h 30.6 km/h 43% 0.0 mm
05:19 14.1 °C 1.7 °C 1024.8 hPa SO 15.6 km/h 22.5 km/h 43% 0.0 mm
05:24 14 °C 1.6 °C 1024.9 hPa SSO 14.5 km/h 25.9 km/h 43% 0.0 mm
05:29 13.8 °C 1.6 °C 1024.9 hPa SSO 13.7 km/h 25.7 km/h 43.4% 0.0 mm
05:34 13.8 °C 1.7 °C 1024.9 hPa SSO 12.8 km/h 22.5 km/h 44% 0.0 mm
05:39 13.7 °C 1.7 °C 1024.9 hPa OSO 12.2 km/h 19.3 km/h 44% 0.0 mm
05:44 13.6 °C 1.8 °C 1024.9 hPa OSO 11 km/h 19 km/h 44.8% 0.0 mm
05:49 13.5 °C 1.6 °C 1024.9 hPa SO 10 km/h 22.2 km/h 44.4% 0.0 mm
05:54 13.6 °C 1.4 °C 1024.9 hPa OSO 11.3 km/h 22.5 km/h 43.4% 0.0 mm
05:59 13.7 °C 1.3 °C 1024.7 hPa SO 12.2 km/h 22.5 km/h 43% 0.0 mm
06:04 13.7 °C 1.3 °C 1024.7 hPa SO 12 km/h 22.5 km/h 43% 0.0 mm
06:09 13.6 °C 1.4 °C 1024.8 hPa SO 11.9 km/h 17.2 km/h 43.5% 0.0 mm
06:14 13.3 °C 1.4 °C 1024.8 hPa OSO 10.8 km/h 18.5 km/h 44.5% 0.0 mm
06:19 13 °C 1.4 °C 1024.8 hPa OSO 10 km/h 19.3 km/h 45.3% 0.0 mm
06:24 12.8 °C 1.5 °C 1024.8 hPa SO 9.7 km/h 16.1 km/h 46% 0.0 mm
06:29 12.8 °C 1.4 °C 1024.7 hPa SO 9.5 km/h 17.2 km/h 46% 0.0 mm
06:34 12.8 °C 1.3 °C 1024.7 hPa OSO 9 km/h 17.7 km/h 45.5% 0.0 mm
06:39 12.8 °C 1.2 °C 1024.7 hPa SO 8.7 km/h 17.2 km/h 45% 0.0 mm
06:44 12.9 °C 1.2 °C 1024.7 hPa SO 9.4 km/h 17.7 km/h 45% 0.0 mm
06:49 12.9 °C 1.2 °C 1024.7 hPa SSO 10 km/h 16.1 km/h 44.7% 0.0 mm
06:54 12.8 °C 1.2 °C 1024.7 hPa Sur 9.2 km/h 15.6 km/h 45% 0.0 mm
06:59 12.6 °C 1.3 °C 1024.7 hPa Sur 8.7 km/h 16.1 km/h 45.9% 0.0 mm
07:04 12.3 °C 1.2 °C 1024.7 hPa SSO 7.6 km/h 14.5 km/h 46.5% 0.0 mm
07:09 12.3 °C 1.3 °C 1024.8 hPa OSO 6.9 km/h 8 km/h 47% 0.0 mm
07:14 12.2 °C 1.4 °C 1024.8 hPa Oeste 4.9 km/h 8 km/h 47.6% 0.0 mm
07:19 12 °C 1.4 °C 1024.8 hPa ONO 3.2 km/h 10.3 km/h 48.4% 0.0 mm
07:24 11.9 °C 1.3 °C 1025.2 hPa Oeste 3.2 km/h 11.3 km/h 48.3% 0.0 mm
07:29 11.8 °C 1.1 °C 1025.2 hPa OSO 3.2 km/h 14.8 km/h 47.7% 0.0 mm
07:34 12.1 °C 0.9 °C 1025.2 hPa SO 5.7 km/h 18.3 km/h 46.5% 0.0 mm
07:39 12.4 °C 0.7 °C 1025.2 hPa OSO 7.6 km/h 20.4 km/h 44.9% 0.0 mm
07:44 12.6 °C 0.6 °C 1024.8 hPa OSO 10 km/h 27.8 km/h 43.7% 0.0 mm
07:49 12.8 °C 0.7 °C 1024.8 hPa OSO 11.9 km/h 27.4 km/h 43.6% 0.0 mm
07:54 12.7 °C 0.8 °C 1024.9 hPa Oeste 12.1 km/h 19.3 km/h 44.5% 0.0 mm
07:59 12.5 °C 0.9 °C 1024.9 hPa SO 12.2 km/h 18.5 km/h 45% 0.0 mm
08:04 12.6 °C 0.9 °C 1024.9 hPa Oeste 9.1 km/h 19.3 km/h 45% 0.0 mm
08:09 12.6 °C 0.9 °C 1025.1 hPa Oeste 6.9 km/h 13 km/h 45% 0.0 mm
08:14 12.6 °C 0.9 °C 1025.1 hPa OSO 6.3 km/h 13 km/h 45% 0.0 mm
08:19 12.6 °C 0.9 °C 1025.1 hPa SSO 5.8 km/h 13.7 km/h 44.9% 0.0 mm
08:24 12.5 °C 0.9 °C 1025.1 hPa SSE 6.8 km/h 17.2 km/h 45% 0.0 mm
08:29 12.4 °C 0.8 °C 1025.0 hPa SSE 7.6 km/h 22.2 km/h 45% 0.0 mm
08:34 12.4 °C 0.8 °C 1025.0 hPa SSE 9.1 km/h 22.5 km/h 45% 0.0 mm
08:39 12.4 °C 0.8 °C 1025.4 hPa SSO 10.3 km/h 12.2 km/h 45% 0.0 mm
08:44 12.3 °C 1 °C 1025.4 hPa SO 8.8 km/h 15.6 km/h 45.8% 0.0 mm
08:49 12.3 °C 1 °C 1025.4 hPa SO 7.6 km/h 16.1 km/h 46% 0.0 mm
08:54 12.4 °C 0.8 °C 1025.4 hPa SSO 9.1 km/h 16.1 km/h 45% 0.0 mm
08:59 12.7 °C 0.7 °C 1025.1 hPa SSO 10.3 km/h 18 km/h 44% 0.0 mm
09:04 12.8 °C 0.6 °C 1025.1 hPa SO 11.3 km/h 19.3 km/h 43% 0.0 mm
09:09 12.9 °C 0.6 °C 1025.1 hPa SO 11.9 km/h 16.1 km/h 43% 0.0 mm
09:14 13.1 °C 0.7 °C 1025.1 hPa Sur 10 km/h 14.5 km/h 42.8% 0.0 mm
09:19 13.3 °C 0.6 °C 1025.1 hPa Sur 8.4 km/h 14.8 km/h 41.9% 0.0 mm
09:24 13.5 °C 0.8 °C 1025.3 hPa SSO 6.4 km/h 14.5 km/h 41.8% 0.0 mm
09:29 13.6 °C 0.9 °C 1025.3 hPa SO 5 km/h 14.8 km/h 42% 0.0 mm
09:34 13.4 °C 0.9 °C 1025.3 hPa SSO 6.1 km/h 14.8 km/h 42.5% 0.0 mm
09:39 13.3 °C 1 °C 1025.3 hPa Sur 6.9 km/h 14.5 km/h 43% 0.0 mm
09:44 13.4 °C 1.1 °C 1025.1 hPa SSE 7.9 km/h 14.8 km/h 43.2% 0.0 mm
09:49 13.5 °C 1.2 °C 1025.1 hPa Sur 8.7 km/h 19.8 km/h 43.2% 0.0 mm
09:54 13.6 °C 1.1 °C 1025.1 hPa Sur 10.5 km/h 20.9 km/h 42.8% 0.0 mm
09:59 13.8 °C 1 °C 1024.8 hPa Sur 11.9 km/h 20.4 km/h 41.9% 0.0 mm
10:04 14 °C 0.8 °C 1024.8 hPa SSO 12.6 km/h 20.9 km/h 40.5% 0.0 mm
10:09 14.3 °C 0.6 °C 1024.8 hPa SSO 13 km/h 20.4 km/h 39.4% 0.0 mm
10:14 14.5 °C 0.7 °C 1024.8 hPa SSO 13 km/h 24.1 km/h 39% 0.0 mm
10:19 14.7 °C 0.6 °C 1024.8 hPa SSO 13 km/h 24.1 km/h 38.4% 0.0 mm
10:24 14.7 °C 0.5 °C 1025.1 hPa SSO 13.4 km/h 24.5 km/h 38% 0.0 mm
10:29 14.8 °C 0.6 °C 1025.1 hPa SO 13.7 km/h 24.1 km/h 38% 0.0 mm
10:34 14.9 °C 0.7 °C 1025.1 hPa SO 11.7 km/h 19.3 km/h 38% 0.0 mm
10:39 15.1 °C 0.9 °C 1025.1 hPa OSO 10.3 km/h 24.5 km/h 38.3% 0.0 mm
10:44 15 °C 1 °C 1025.1 hPa Oeste 11.2 km/h 24.1 km/h 38.7% 0.0 mm
10:49 14.9 °C 1.1 °C 1025.1 hPa SO 11.9 km/h 24.1 km/h 39% 0.0 mm
10:54 15 °C 1.2 °C 1025.5 hPa SO 11 km/h 16.7 km/h 39.1% 0.0 mm
10:59 15.3 °C 1.3 °C 1025.5 hPa Sur 10.3 km/h 15.6 km/h 38.8% 0.0 mm
11:04 15.4 °C 1.1 °C 1025.5 hPa SSO 9.8 km/h 17.2 km/h 37.9% 0.0 mm
11:09 15.5 °C 1.1 °C 1025.5 hPa OSO 9.5 km/h 19 km/h 37.7% 0.0 mm
11:14 15.6 °C 1 °C 1025.5 hPa SO 10 km/h 19.3 km/h 37% 0.0 mm
11:19 15.8 °C 1 °C 1025.5 hPa OSO 10.3 km/h 17.7 km/h 36.7% 0.0 mm
11:24 15.9 °C 0.9 °C 1025.6 hPa SO 9.2 km/h 18.3 km/h 36.3% 0.0 mm
11:29 16 °C 0.9 °C 1025.6 hPa OSO 8.4 km/h 19.3 km/h 36% 0.0 mm
11:34 16.1 °C 0.9 °C 1025.6 hPa OSO 9.3 km/h 23.7 km/h 35.8% 0.0 mm
11:39 16.2 °C 0.7 °C 1025.6 hPa OSO 10 km/h 24.1 km/h 35% 0.0 mm
11:44 16.3 °C 0.6 °C 1025.5 hPa Oeste 11.2 km/h 22.5 km/h 34.7% 0.0 mm
11:49 16.3 °C 0.8 °C 1025.5 hPa ONO 12.2 km/h 19.3 km/h 34.9% 0.0 mm
11:54 16.5 °C 0.9 °C 1025.5 hPa ONO 11 km/h 33.5 km/h 35% 0.0 mm
11:59 16.4 °C 0.9 °C 1025.3 hPa ONO 10 km/h 35.2 km/h 35% 0.0 mm
12:04 16.3 °C 1.2 °C 1025.3 hPa ONO 15.9 km/h 35.4 km/h 35.9% 0.0 mm
12:09 16.3 °C 1.4 °C 1025.3 hPa ONO 20.1 km/h 33.3 km/h 36.7% 0.0 mm
12:14 16.3 °C 1.3 °C 1025.1 hPa ONO 19.9 km/h 37.8 km/h 36.3% 0.0 mm
12:19 16.3 °C 1.5 °C 1025.1 hPa Oeste 19.8 km/h 37 km/h 36.8% 0.0 mm
12:24 16.5 °C 1.7 °C 1025.1 hPa Oeste 19 km/h 33.8 km/h 36.8% 0.0 mm
12:29 16.6 °C 1.8 °C 1024.8 hPa Oeste 18.4 km/h 29 km/h 37% 0.0 mm
12:34 16.7 °C 2 °C 1024.8 hPa Oeste 15.4 km/h 22.5 km/h 37% 0.0 mm
12:39 16.9 °C 1.8 °C 1024.8 hPa ONO 13 km/h 29.8 km/h 36.1% 0.0 mm
12:44 16.9 °C 1.7 °C 1024.7 hPa ONO 13.4 km/h 30.6 km/h 36% 0.0 mm
12:49 17.1 °C 1.8 °C 1024.7 hPa ONO 13.7 km/h 29.8 km/h 35.8% 0.0 mm
12:54 17.2 °C 1.9 °C 1024.7 hPa ONO 15.2 km/h 30.6 km/h 36% 0.0 mm
12:59 17.4 °C 2 °C 1024.4 hPa Oeste 16.4 km/h 27.4 km/h 35.6% 0.0 mm
13:04 17.5 °C 1.9 °C 1024.4 hPa Oeste 15.5 km/h 27.8 km/h 35% 0.0 mm
13:09 17.6 °C 1.7 °C 1024.4 hPa Oeste 14.8 km/h 25.9 km/h 34.4% 0.0 mm
13:14 17.7 °C 1.7 °C 1024.2 hPa Oeste 14.8 km/h 25.9 km/h 34.3% 0.0 mm
13:19 17.8 °C 2.1 °C 1024.2 hPa ONO 14.8 km/h 25.7 km/h 35% 0.0 mm
13:24 18 °C 2.2 °C 1024.2 hPa ONO 13.8 km/h 22.5 km/h 34.9% 0.0 mm
13:29 18.1 °C 2.2 °C 1024.0 hPa Oeste 13 km/h 19.8 km/h 34.6% 0.0 mm
13:34 18.2 °C 2 °C 1024.0 hPa Oeste 11.5 km/h 22.5 km/h 34% 0.0 mm
13:39 18.2 °C 2.1 °C 1024.0 hPa OSO 10.3 km/h 22.5 km/h 33.9% 0.0 mm
13:44 18.4 °C 1.8 °C 1023.8 hPa ONO 10.3 km/h 22.5 km/h 33.1% 0.0 mm
13:49 18.5 °C 1.7 °C 1023.8 hPa Oeste 10.3 km/h 23.7 km/h 32.6% 0.0 mm
13:54 18.6 °C 1.8 °C 1023.8 hPa OSO 11.8 km/h 24.5 km/h 32.5% 0.0 mm
13:59 18.7 °C 1.7 °C 1023.4 hPa Oeste 13 km/h 24.1 km/h 32.2% 0.0 mm
14:04 18.7 °C 1.6 °C 1023.4 hPa Oeste 13.6 km/h 24.1 km/h 31.9% 0.0 mm
14:09 18.9 °C 1.7 °C 1023.4 hPa OSO 14 km/h 22.5 km/h 31.6% 0.0 mm
14:14 19.1 °C 1.6 °C 1023.2 hPa OSO 11 km/h 18.5 km/h 31.2% 0.0 mm
14:19 19.2 °C 1.3 °C 1023.2 hPa OSO 8.7 km/h 20.1 km/h 30.2% 0.0 mm
14:24 19.2 °C 1.2 °C 1023.2 hPa OSO 10.5 km/h 24.1 km/h 30% 0.0 mm
14:29 19.2 °C 1.2 °C 1023.1 hPa Oeste 11.9 km/h 24.1 km/h 30.1% 0.0 mm
14:34 19.3 °C 1.3 °C 1023.1 hPa ONO 13.1 km/h 24.1 km/h 30.2% 0.0 mm
14:39 19.3 °C 1.3 °C 1023.1 hPa ONO 14 km/h 24.5 km/h 30% 0.0 mm
14:44 19.4 °C 1.5 °C 1022.9 hPa ONO 13 km/h 24.1 km/h 30.3% 0.0 mm
14:49 19.6 °C 1.5 °C 1022.9 hPa Oeste 12.2 km/h 24.1 km/h 29.9% 0.0 mm
14:54 19.7 °C 1.6 °C 1022.9 hPa OSO 11.1 km/h 24.1 km/h 29.9% 0.0 mm
14:59 19.7 °C 1.6 °C 1022.8 hPa OSO 10.3 km/h 19.3 km/h 29.9% 0.0 mm
15:04 19.7 °C 1.6 °C 1022.8 hPa OSO 10.3 km/h 19.3 km/h 30% 0.0 mm
15:09 19.8 °C 1.8 °C 1022.8 hPa Oeste 10.3 km/h 17.2 km/h 30.1% 0.0 mm
15:14 19.9 °C 1.8 °C 1022.7 hPa ONO 10.1 km/h 22.5 km/h 30% 0.0 mm
15:19 19.8 °C 1.4 °C 1022.7 hPa Oeste 10 km/h 22.5 km/h 29.3% 0.0 mm
15:24 19.9 °C 1.8 °C 1022.7 hPa OSO 10.6 km/h 22.5 km/h 30% 0.0 mm
15:29 19.9 °C 1.8 °C 1022.6 hPa Oeste 11.1 km/h 19.3 km/h 29.9% 0.0 mm
15:34 20 °C 1.9 °C 1022.6 hPa Oeste 10.5 km/h 19.3 km/h 30% 0.0 mm
15:39 20.1 °C 1.8 °C 1022.6 hPa Oeste 10 km/h 18.5 km/h 29.7% 0.0 mm
15:44 20.1 °C 1.9 °C 1022.4 hPa Oeste 9.7 km/h 20.1 km/h 30% 0.0 mm
15:49 20.1 °C 1.7 °C 1022.4 hPa Oeste 9.5 km/h 20.9 km/h 29.4% 0.0 mm
15:54 20 °C 2 °C 1022.4 hPa Oeste 10.9 km/h 20.9 km/h 30.1% 0.0 mm
15:59 20.1 °C 1.9 °C 1022.3 hPa Oeste 11.9 km/h 20.4 km/h 30% 0.0 mm
16:04 20.1 °C 1.7 °C 1022.3 hPa Oeste 11 km/h 24.5 km/h 29.5% 0.0 mm
16:09 20.1 °C 1.9 °C 1022.3 hPa Oeste 10.3 km/h 24.1 km/h 30% 0.0 mm
16:14 20.1 °C 1.9 °C 1022.3 hPa Oeste 10.1 km/h 16.1 km/h 30% 0.0 mm
16:19 20.1 °C 1.9 °C 1022.3 hPa Oeste 10 km/h 14.5 km/h 30% 0.0 mm
16:24 20.2 °C 2.1 °C 1022.3 hPa Oeste 8 km/h 12.2 km/h 30.1% 0.0 mm
16:29 20.2 °C 2.1 °C 1022.2 hPa Oeste 6.5 km/h 13 km/h 30% 0.0 mm
16:34 20.2 °C 2.1 °C 1022.2 hPa Oeste 6.5 km/h 11.3 km/h 30% 0.0 mm
16:39 20.2 °C 2.1 °C 1022.2 hPa Oeste 6.5 km/h 11.3 km/h 30.1% 0.0 mm
16:44 20.2 °C 2.5 °C 1022.2 hPa Oeste 5.6 km/h 9.7 km/h 30.8% 0.0 mm
16:49 20.3 °C 2.5 °C 1022.2 hPa OSO 5 km/h 8 km/h 30.7% 0.0 mm
16:54 20.3 °C 2.2 °C 1022.2 hPa OSO 4.8 km/h 9.3 km/h 30% 0.0 mm
16:59 20.3 °C 2.3 °C 1022.1 hPa OSO 4.7 km/h 9.7 km/h 30.5% 0.0 mm
17:04 20.2 °C 2.5 °C 1022.1 hPa OSO 4.8 km/h 8.4 km/h 30.9% 0.0 mm
17:09 20.2 °C 2.8 °C 1022.1 hPa Oeste 5 km/h 17.2 km/h 31.7% 0.0 mm
17:14 19.4 °C 5.6 °C 1022.1 hPa NNE 5.8 km/h 18 km/h 40.6% 0.0 mm
17:19 18 °C 6.5 °C 1022.1 hPa NNE 6.5 km/h 19.3 km/h 47% 0.0 mm
17:24 17.1 °C 6.8 °C 1022.3 hPa NNE 8.5 km/h 14.5 km/h 50.7% 0.0 mm
17:29 16.6 °C 7 °C 1022.3 hPa North 10 km/h 13 km/h 53% 0.0 mm
17:34 16.3 °C 7.1 °C 1022.3 hPa North 8.2 km/h 12.9 km/h 54.5% 0.0 mm
17:39 16.1 °C 7 °C 1022.3 hPa North 6.9 km/h 13.7 km/h 55% 0.0 mm
17:44 15.8 °C 6.8 °C 1022.3 hPa North 6.7 km/h 14.5 km/h 55.1% 0.0 mm
17:49 15.6 °C 6.7 °C 1022.3 hPa North 6.5 km/h 13 km/h 55.2% 0.0 mm
17:54 15.4 °C 6.4 °C 1022.4 hPa North 6.1 km/h 13.7 km/h 55.1% 0.0 mm
17:59 15.2 °C 6.5 °C 1022.4 hPa North 5.8 km/h 14.5 km/h 56% 0.0 mm
18:04 15.1 °C 6.4 °C 1022.4 hPa North 5.8 km/h 11.3 km/h 56% 0.0 mm
18:09 14.9 °C 6.4 °C 1022.4 hPa North 5.8 km/h 10 km/h 56.9% 0.0 mm
18:14 14.8 °C 6.3 °C 1022.4 hPa NO 5.1 km/h 9.7 km/h 57% 0.0 mm
18:19 14.7 °C 6.5 °C 1022.4 hPa NO 4.7 km/h 8 km/h 58% 0.0 mm
18:24 14.6 °C 6.4 °C 1022.5 hPa ONO 4.2 km/h 8 km/h 58% 0.0 mm
18:29 14.4 °C 6.3 °C 1022.5 hPa OSO 3.9 km/h 6.4 km/h 58.1% 0.0 mm
18:34 14.4 °C 6.5 °C 1022.5 hPa ONO 3.3 km/h 6.4 km/h 59% 0.0 mm
18:39 14.4 °C 6.5 °C 1022.5 hPa NNO 2.9 km/h 8 km/h 59% 0.0 mm
18:44 14.3 °C 6.6 °C 1022.5 hPa NNO 3.9 km/h 8 km/h 59.8% 0.0 mm
18:49 14.2 °C 6.6 °C 1022.5 hPa NNO 4.7 km/h 8 km/h 60% 0.0 mm
18:54 14.1 °C 6.7 °C 1022.5 hPa NNO 4.7 km/h 8 km/h 60.8% 0.0 mm
18:59 14 °C 6.6 °C 1022.3 hPa NNO 4.7 km/h 8 km/h 61.1% 0.0 mm
19:04 13.9 °C 6.7 °C 1022.3 hPa NNO 3.8 km/h 7.4 km/h 62% 0.0 mm
19:09 13.8 °C 6.7 °C 1022.4 hPa NNO 3.2 km/h 8 km/h 62% 0.0 mm
19:14 13.7 °C 6.8 °C 1022.4 hPa North 3.2 km/h 8.4 km/h 62.9% 0.0 mm
19:19 13.6 °C 6.7 °C 1022.4 hPa SSO 3.2 km/h 9.3 km/h 63.2% 0.0 mm
19:24 13.5 °C 6.8 °C 1022.5 hPa OSO 4.2 km/h 9.7 km/h 64% 0.0 mm
19:29 13.5 °C 6.8 °C 1022.5 hPa OSO 5 km/h 8 km/h 64% 0.0 mm
19:34 13.5 °C 6.8 °C 1022.5 hPa SSE 4.8 km/h 9.5 km/h 64% 0.0 mm
19:39 13.4 °C 6.8 °C 1022.5 hPa SO 4.7 km/h 9.7 km/h 64% 0.0 mm
19:44 13.4 °C 6.7 °C 1022.5 hPa Oeste 4.2 km/h 7.4 km/h 64% 0.0 mm
19:49 13.4 °C 6.7 °C 1022.5 hPa OSO 3.9 km/h 8 km/h 64% 0.0 mm
19:54 13.4 °C 6.7 °C 1022.5 hPa SO 3.5 km/h 8 km/h 64% 0.0 mm
19:59 13.4 °C 6.7 °C 1022.5 hPa Sur 3.2 km/h 7.4 km/h 64% 0.0 mm
20:04 13.2 °C 6.8 °C 1022.5 hPa Este 3 km/h 8 km/h 65% 0.0 mm
20:09 13 °C 6.8 °C 1022.5 hPa ESE 2.9 km/h 8 km/h 66.1% 0.0 mm
20:14 12.7 °C 6.8 °C 1022.5 hPa SSE 3.4 km/h 8 km/h 67.5% 0.0 mm
20:19 12.5 °C 6.9 °C 1022.5 hPa SSO 3.9 km/h 8 km/h 68.8% 0.0 mm
20:24 12.4 °C 6.9 °C 1022.5 hPa SSO 3.3 km/h 6.4 km/h 69% 0.0 mm
20:29 12.4 °C 6.9 °C 1022.5 hPa Sur 2.9 km/h 5.8 km/h 69% 0.0 mm
20:34 12.4 °C 6.9 °C 1022.5 hPa SE 3.1 km/h 9.3 km/h 69% 0.0 mm
20:39 12.3 °C 6.7 °C 1022.6 hPa SSE 3.2 km/h 9.7 km/h 68.6% 0.0 mm
20:44 12.2 °C 6.6 °C 1022.6 hPa SSO 4.7 km/h 9.7 km/h 68.8% 0.0 mm
20:49 12.2 °C 6.5 °C 1022.6 hPa OSO 5.8 km/h 8 km/h 68.1% 0.0 mm
20:54 12.1 °C 6.4 °C 1022.6 hPa ONO 4.6 km/h 8 km/h 68.1% 0.0 mm
20:59 11.9 °C 6.2 °C 1022.4 hPa SO 3.9 km/h 7.6 km/h 67.9% 0.0 mm
21:04 11.9 °C 6 °C 1022.4 hPa Sur 4.3 km/h 8 km/h 67.1% 0.0 mm
21:09 12.1 °C 6.3 °C 1022.4 hPa Sur 4.7 km/h 8 km/h 67.7% 0.0 mm
21:14 12.1 °C 6.1 °C 1022.3 hPa SSO 4.7 km/h 13.7 km/h 66.6% 0.0 mm
21:19 12.1 °C 5.9 °C 1022.3 hPa SSO 4.7 km/h 14.5 km/h 65.6% 0.0 mm
21:24 12.1 °C 5.7 °C 1022.3 hPa SO 6 km/h 11.3 km/h 65% 0.0 mm
21:29 12 °C 5.6 °C 1022.3 hPa SO 6.9 km/h 9.7 km/h 65% 0.0 mm
21:34 11.9 °C 5.5 °C 1022.3 hPa Sur 5.8 km/h 11.1 km/h 65% 0.0 mm
21:39 11.9 °C 5.6 °C 1022.3 hPa SO 5 km/h 11.3 km/h 65.6% 0.0 mm
21:44 11.9 °C 5.7 °C 1022.3 hPa SSO 5.4 km/h 13 km/h 66% 0.0 mm
21:49 11.9 °C 5.7 °C 1022.3 hPa SO 5.8 km/h 12.9 km/h 66% 0.0 mm
21:54 11.8 °C 5.7 °C 1022.3 hPa SSO 5.1 km/h 9.7 km/h 66% 0.0 mm
21:59 11.8 °C 5.5 °C 1022.2 hPa Sur 4.7 km/h 9.3 km/h 65.2% 0.0 mm
22:04 11.7 °C 5.3 °C 1022.2 hPa Sur 5.3 km/h 13.7 km/h 65% 0.0 mm
22:09 11.7 °C 5.3 °C 1022.3 hPa SO 5.8 km/h 14.5 km/h 64.9% 0.0 mm
22:14 11.8 °C 5.2 °C 1022.3 hPa Sur 7.2 km/h 13 km/h 64% 0.0 mm
22:19 11.8 °C 5.2 °C 1022.3 hPa SSO 8.4 km/h 13 km/h 64% 0.0 mm
22:24 11.7 °C 5.2 °C 1022.3 hPa SSO 7.3 km/h 11.3 km/h 64% 0.0 mm
22:29 11.7 °C 5 °C 1022.2 hPa SSO 6.5 km/h 9.7 km/h 63.3% 0.0 mm
22:34 11.7 °C 5.1 °C 1022.2 hPa Sur 6.5 km/h 9.7 km/h 64% 0.0 mm
22:39 11.6 °C 5 °C 1022.2 hPa SSO 6.5 km/h 11.1 km/h 64% 0.0 mm
22:44 11.4 °C 4.9 °C 1022.0 hPa SO 6.7 km/h 11.3 km/h 64% 0.0 mm
22:49 11.4 °C 4.7 °C 1022.0 hPa SO 6.9 km/h 11.3 km/h 63.3% 0.0 mm
22:54 11.5 °C 4.7 °C 1022.1 hPa Sur 6.7 km/h 11.9 km/h 63% 0.0 mm
22:59 11.4 °C 4.8 °C 1022.1 hPa Sur 6.5 km/h 13.7 km/h 63.6% 0.0 mm
23:04 11.3 °C 4.8 °C 1022.1 hPa SSO 7.8 km/h 14.5 km/h 64% 0.0 mm
23:09 11.3 °C 4.7 °C 1022.2 hPa SSO 8.7 km/h 14.5 km/h 63.9% 0.0 mm
23:14 11.3 °C 4.7 °C 1022.2 hPa Sur 8.5 km/h 15.6 km/h 64% 0.0 mm
23:19 11.2 °C 4.6 °C 1022.2 hPa Sur 8.4 km/h 18.5 km/h 64% 0.0 mm
23:24 11 °C 4.5 °C 1022.2 hPa Sur 10.5 km/h 19.3 km/h 64% 0.0 mm
23:29 11 °C 4.5 °C 1022.2 hPa Sur 12.2 km/h 19.3 km/h 64% 0.0 mm
23:34 11.1 °C 4.6 °C 1022.2 hPa Sur 11.1 km/h 22 km/h 64% 0.0 mm
23:39 11.2 °C 4.3 °C 1022.2 hPa SSO 10.3 km/h 24.1 km/h 62.7% 0.0 mm
23:44 11.4 °C 4.2 °C 1022.2 hPa Sur 12.4 km/h 24.1 km/h 61.2% 0.0 mm
23:49 11.7 °C 4 °C 1022.2 hPa Sur 14 km/h 20.9 km/h 59.6% 0.0 mm
23:54 11.8 °C 3.9 °C 1022.3 hPa Sur 13.5 km/h 20.9 km/h 58.3% 0.0 mm
23:59 12 °C 3.8 °C 1022.3 hPa Sur 13 km/h 19.3 km/h 57.1% 0.0 mm
Murcia-Puente Tocinos, Espa?a
Compliments of Weather Underground - 3.25 mb

La estación de MeteoMurcia.com, publica sus datos en los siguientes proyectos:

Weather Underground PWS IMURCIAP2 Meteoclimatic www.awekas.at

W3Counter
Web Analytics